createdAt,value
2018-11-29T00:00:30.228Z,10.10
2018-11-29T00:02:58.840Z,10.10
2018-11-29T00:05:27.354Z,10.10
2018-11-29T00:07:55.855Z,10.10
2018-11-29T00:10:24.324Z,10.10
2018-11-29T00:12:52.885Z,10.10
2018-11-29T00:15:21.438Z,10.10
2018-11-29T00:17:49.990Z,10.10
2018-11-29T00:20:19.349Z,10.20
2018-11-29T00:22:49.717Z,10.10
2018-11-29T00:25:18.953Z,10.20
2018-11-29T00:27:47.916Z,10.20
2018-11-29T00:30:24.004Z,10.20
2018-11-29T00:32:53.590Z,10.20
2018-11-29T00:35:22.533Z,10.20
2018-11-29T00:37:51.157Z,10.20
2018-11-29T00:40:22.661Z,10.20
2018-11-29T00:42:51.782Z,10.10
2018-11-29T00:45:22.146Z,10.10
2018-11-29T00:47:51.445Z,10.10
2018-11-29T00:50:20.790Z,10.10
2018-11-29T00:52:50.166Z,10.00
2018-11-29T00:55:22.613Z,10.00
2018-11-29T00:57:51.485Z,10.00
2018-11-29T01:00:22.336Z,9.90
2018-11-29T01:02:50.961Z,9.90
2018-11-29T01:05:19.639Z,9.90
2018-11-29T01:07:48.128Z,9.80
2018-11-29T01:10:17.327Z,9.90
2018-11-29T01:12:46.392Z,9.90
2018-11-29T01:15:15.777Z,9.80
2018-11-29T01:17:45.154Z,9.80
2018-11-29T01:20:14.814Z,9.80
2018-11-29T01:22:43.327Z,9.80
2018-11-29T01:25:12.741Z,9.90
2018-11-29T01:27:41.745Z,9.90
2018-11-29T01:30:14.384Z,9.80
2018-11-29T01:32:42.949Z,9.90
2018-11-29T01:35:13.297Z,9.90
2018-11-29T01:37:41.863Z,9.90
2018-11-29T01:40:16.816Z,9.90
2018-11-29T01:42:49.234Z,9.90
2018-11-29T01:45:17.702Z,9.90
2018-11-29T01:47:46.194Z,9.90
2018-11-29T01:50:14.700Z,9.90
2018-11-29T01:52:43.298Z,9.90
2018-11-29T01:55:11.853Z,9.90
2018-11-29T01:57:40.387Z,10.00
2018-11-29T02:00:13.974Z,10.00
2018-11-29T02:02:42.546Z,10.00
2018-11-29T02:05:11.959Z,10.00
2018-11-29T02:07:40.478Z,10.00
2018-11-29T02:10:18.449Z,10.00
2018-11-29T02:12:46.994Z,10.10
2018-11-29T02:15:15.636Z,10.00
2018-11-29T02:17:44.135Z,10.00
2018-11-29T02:20:17.032Z,10.10
2018-11-29T02:22:45.931Z,10.10
2018-11-29T02:25:14.501Z,10.00
2018-11-29T02:27:43.017Z,10.10
2018-11-29T02:30:15.375Z,10.10
2018-11-29T02:32:43.958Z,10.10
2018-11-29T02:35:12.507Z,10.10
2018-11-29T02:37:40.967Z,10.10
2018-11-29T02:40:11.729Z,10.10
2018-11-29T02:42:40.995Z,10.10
2018-11-29T02:45:11.121Z,10.10
2018-11-29T02:47:39.596Z,10.10
2018-11-29T02:50:09.293Z,10.10
2018-11-29T02:52:37.863Z,10.10
2018-11-29T02:55:09.634Z,10.10
2018-11-29T02:57:38.160Z,10.00
2018-11-29T03:00:11.407Z,10.10
2018-11-29T03:02:39.918Z,10.00
2018-11-29T03:05:08.458Z,10.10
2018-11-29T03:07:37.456Z,10.10
2018-11-29T03:10:08.989Z,10.00
2018-11-29T03:12:37.493Z,10.00
2018-11-29T03:15:09.606Z,10.00
2018-11-29T03:17:38.103Z,10.00
2018-11-29T03:20:08.522Z,10.00
2018-11-29T03:22:37.020Z,10.00
2018-11-29T03:25:08.098Z,10.00
2018-11-29T03:27:36.568Z,10.00
2018-11-29T03:30:06.193Z,10.10
2018-11-29T03:32:34.707Z,10.00
2018-11-29T03:35:03.392Z,10.00
2018-11-29T03:37:32.314Z,10.00
2018-11-29T03:40:01.189Z,10.00
2018-11-29T03:42:30.038Z,10.10
2018-11-29T03:44:59.642Z,10.00
2018-11-29T03:47:28.208Z,10.10
2018-11-29T03:49:56.739Z,10.10
2018-11-29T03:52:25.258Z,10.10
2018-11-29T03:54:56.480Z,10.10
2018-11-29T03:57:25.215Z,10.10
2018-11-29T03:59:54.863Z,10.20
2018-11-29T04:02:23.947Z,10.20
2018-11-29T04:04:53.093Z,10.20
2018-11-29T04:07:21.589Z,10.20
2018-11-29T04:09:50.168Z,10.20
2018-11-29T04:12:18.865Z,10.20
2018-11-29T04:14:47.322Z,10.20
2018-11-29T04:17:15.750Z,10.20
2018-11-29T04:19:44.284Z,10.20
2018-11-29T04:22:12.746Z,10.20
2018-11-29T04:24:41.229Z,10.10
2018-11-29T04:27:09.759Z,10.20
2018-11-29T04:29:38.319Z,10.20
2018-11-29T04:32:07.199Z,10.20
2018-11-29T04:34:35.683Z,10.20
2018-11-29T04:37:04.122Z,10.20
2018-11-29T04:39:32.622Z,10.30
2018-11-29T04:42:01.200Z,10.20
2018-11-29T04:44:29.772Z,10.20
2018-11-29T04:46:58.235Z,10.30
2018-11-29T04:49:26.725Z,10.30
2018-11-29T04:51:55.189Z,10.20
2018-11-29T04:54:23.631Z,10.30
2018-11-29T04:56:52.207Z,10.20
2018-11-29T04:59:20.714Z,10.20
2018-11-29T05:01:49.169Z,10.20
2018-11-29T05:04:17.624Z,10.20
2018-11-29T05:06:46.137Z,10.20
2018-11-29T05:09:14.647Z,10.20
2018-11-29T05:11:43.171Z,10.20
2018-11-29T05:14:11.699Z,10.20
2018-11-29T05:16:40.155Z,10.20
2018-11-29T05:19:08.738Z,10.30
2018-11-29T05:21:37.195Z,10.30
2018-11-29T05:24:06.073Z,10.30
2018-11-29T05:26:34.607Z,10.20
2018-11-29T05:29:03.193Z,10.30
2018-11-29T05:31:31.627Z,10.30
2018-11-29T05:34:00.184Z,10.40
2018-11-29T05:36:28.676Z,10.30
2018-11-29T05:38:57.183Z,10.20
2018-11-29T05:41:25.614Z,10.30
2018-11-29T05:43:54.047Z,10.20
2018-11-29T05:46:22.699Z,10.20
2018-11-29T05:48:51.547Z,10.20
2018-11-29T05:51:19.997Z,10.20
2018-11-29T05:53:48.482Z,10.20
2018-11-29T05:56:16.945Z,10.30
2018-11-29T05:58:45.521Z,10.20
2018-11-29T06:01:35.283Z,10.30
2018-11-29T06:04:04.473Z,10.30
2018-11-29T06:06:32.970Z,10.20
2018-11-29T06:09:01.466Z,10.30
2018-11-29T06:11:29.944Z,10.30
2018-11-29T06:13:58.494Z,10.30
2018-11-29T06:16:27.050Z,10.30
2018-11-29T06:18:55.571Z,10.30
2018-11-29T06:21:24.047Z,10.30
2018-11-29T06:23:52.669Z,10.30
2018-11-29T06:26:21.299Z,10.30
2018-11-29T06:28:49.817Z,10.40
2018-11-29T06:31:18.316Z,10.40
2018-11-29T06:33:46.821Z,10.30
2018-11-29T06:36:15.332Z,10.30
2018-11-29T06:38:43.938Z,10.40
2018-11-29T06:41:12.447Z,10.40
2018-11-29T06:43:40.913Z,10.30
2018-11-29T06:46:09.438Z,10.30
2018-11-29T06:48:37.886Z,10.40
2018-11-29T06:51:06.474Z,10.30
2018-11-29T06:53:40.375Z,10.20
2018-11-29T06:56:08.887Z,10.20
2018-11-29T06:58:37.365Z,10.20
2018-11-29T07:01:05.879Z,10.20
2018-11-29T07:03:34.408Z,10.20
2018-11-29T07:06:02.915Z,10.30
2018-11-29T07:08:31.401Z,10.30
2018-11-29T07:10:59.808Z,10.20
2018-11-29T07:13:28.281Z,10.20
2018-11-29T07:15:56.750Z,10.20
2018-11-29T07:18:25.233Z,10.20
2018-11-29T07:21:04.896Z,10.20
2018-11-29T07:23:34.274Z,10.30
2018-11-29T07:26:02.831Z,10.40
2018-11-29T07:28:31.345Z,10.30
2018-11-29T07:30:59.807Z,10.30
2018-11-29T07:33:28.356Z,10.30
2018-11-29T07:35:56.882Z,10.30
2018-11-29T07:38:25.542Z,10.30
2018-11-29T07:40:54.055Z,10.30
2018-11-29T07:43:22.583Z,10.20
2018-11-29T07:45:51.550Z,10.30
2018-11-29T07:48:20.003Z,10.20
2018-11-29T07:50:48.467Z,10.20
2018-11-29T07:53:16.909Z,10.20
2018-11-29T07:55:45.407Z,10.30
2018-11-29T07:58:13.892Z,10.20
2018-11-29T08:00:42.381Z,10.30
2018-11-29T08:03:10.877Z,10.20
2018-11-29T08:05:39.401Z,10.20
2018-11-29T08:08:07.911Z,10.20
2018-11-29T08:10:36.472Z,10.20
2018-11-29T08:13:05.198Z,10.20
2018-11-29T08:15:33.803Z,10.10
2018-11-29T08:18:02.276Z,10.00
2018-11-29T08:20:30.810Z,10.00
2018-11-29T08:22:59.278Z,10.10
2018-11-29T08:25:27.763Z,10.10
2018-11-29T08:27:56.270Z,10.10
2018-11-29T08:30:24.727Z,10.10
2018-11-29T08:32:53.274Z,10.00
2018-11-29T08:35:21.803Z,10.10
2018-11-29T08:37:50.269Z,10.10
2018-11-29T08:40:20.367Z,10.20
2018-11-29T08:42:48.945Z,10.20
2018-11-29T08:45:17.447Z,10.10
2018-11-29T08:47:46.701Z,10.10
2018-11-29T08:50:15.597Z,10.00
2018-11-29T08:52:45.214Z,10.10
2018-11-29T08:55:15.821Z,10.10
2018-11-29T08:57:44.309Z,10.10
2018-11-29T09:00:15.668Z,10.10
2018-11-29T09:02:44.202Z,10.00
2018-11-29T09:05:13.326Z,10.00
2018-11-29T09:07:42.180Z,10.10
2018-11-29T09:10:11.832Z,10.00
2018-11-29T09:12:40.361Z,10.10
2018-11-29T09:15:12.227Z,10.10
2018-11-29T09:17:40.856Z,10.20
2018-11-29T09:20:11.679Z,10.10
2018-11-29T09:22:40.245Z,10.10
2018-11-29T09:25:10.440Z,10.10
2018-11-29T09:27:39.057Z,10.10
2018-11-29T09:30:17.855Z,10.10
2018-11-29T09:32:47.467Z,10.10
2018-11-29T09:35:16.991Z,10.20
2018-11-29T09:37:45.500Z,10.10
2018-11-29T09:40:17.035Z,10.10
2018-11-29T09:42:46.014Z,10.10
2018-11-29T09:45:20.613Z,10.10
2018-11-29T09:47:51.182Z,10.10
2018-11-29T09:50:19.755Z,10.00
2018-11-29T09:52:48.311Z,10.00
2018-11-29T09:55:17.659Z,10.10
2018-11-29T09:57:47.259Z,10.10
2018-11-29T10:00:28.077Z,10.10
2018-11-29T10:03:06.194Z,10.10
2018-11-29T10:05:35.089Z,10.10
2018-11-29T10:08:04.022Z,10.20
2018-11-29T10:10:33.062Z,10.10
2018-11-29T10:13:01.619Z,10.10
2018-11-29T10:15:31.921Z,10.10
2018-11-29T10:18:01.156Z,10.20
2018-11-29T10:20:30.761Z,10.10
2018-11-29T10:22:59.397Z,10.20
2018-11-29T10:25:28.010Z,10.10
2018-11-29T10:27:59.384Z,10.20
2018-11-29T10:30:29.356Z,10.20
2018-11-29T10:32:58.064Z,10.20
2018-11-29T10:35:26.615Z,10.20
2018-11-29T10:37:55.175Z,10.20
2018-11-29T10:40:23.713Z,10.30
2018-11-29T10:42:52.270Z,10.20
2018-11-29T10:45:21.227Z,10.30
2018-11-29T10:47:52.486Z,10.40
2018-11-29T10:50:19.783Z,10.40
2018-11-29T10:52:48.393Z,10.30
2018-11-29T10:55:18.021Z,10.30
2018-11-29T10:57:46.508Z,10.40
2018-11-29T11:00:27.126Z,10.40
2018-11-29T11:03:05.178Z,10.40
2018-11-29T11:05:33.701Z,10.40
2018-11-29T11:08:08.171Z,10.40
2018-11-29T11:10:30.792Z,10.40
2018-11-29T11:13:00.197Z,10.50
2018-11-29T11:15:28.843Z,10.50
2018-11-29T11:17:57.392Z,10.50
2018-11-29T11:20:26.029Z,10.50
2018-11-29T11:22:54.519Z,10.50
2018-11-29T11:25:23.046Z,10.50
2018-11-29T11:27:51.550Z,10.50
2018-11-29T11:30:21.069Z,10.50
2018-11-29T11:32:51.593Z,10.50
2018-11-29T11:35:20.148Z,10.60
2018-11-29T11:37:48.638Z,10.60
2018-11-29T11:40:17.560Z,10.60
2018-11-29T11:42:47.144Z,10.50
2018-11-29T11:45:20.746Z,10.60
2018-11-29T11:47:49.698Z,10.60
2018-11-29T11:50:22.863Z,10.60
2018-11-29T11:52:52.005Z,10.60
2018-11-29T11:55:20.578Z,10.60
2018-11-29T11:57:49.242Z,10.60
2018-11-29T12:00:23.468Z,10.50
2018-11-29T12:02:54.313Z,10.60
2018-11-29T12:05:22.884Z,10.60
2018-11-29T12:07:51.655Z,10.70
2018-11-29T12:10:20.224Z,10.60
2018-11-29T12:12:48.836Z,10.70
2018-11-29T12:15:17.451Z,10.70
2018-11-29T12:17:46.735Z,10.70
2018-11-29T12:20:17.012Z,10.70
2018-11-29T12:22:45.573Z,10.70
2018-11-29T12:25:15.062Z,10.80
2018-11-29T12:27:43.618Z,10.80
2018-11-29T12:30:17.666Z,10.80
2018-11-29T12:32:46.378Z,10.80
2018-11-29T12:35:15.265Z,10.80
2018-11-29T12:37:43.807Z,10.80
2018-11-29T12:40:14.363Z,10.80
2018-11-29T12:42:42.997Z,10.90
2018-11-29T12:45:12.613Z,10.80
2018-11-29T12:47:41.263Z,10.80
2018-11-29T12:50:13.892Z,10.90
2018-11-29T12:52:42.517Z,10.90
2018-11-29T12:55:11.695Z,10.90
2018-11-29T12:57:42.175Z,10.90
2018-11-29T13:00:25.298Z,10.90
2018-11-29T13:02:55.090Z,10.90
2018-11-29T13:05:23.790Z,10.90
2018-11-29T13:07:52.511Z,10.90
2018-11-29T13:10:23.772Z,10.90
2018-11-29T13:12:51.492Z,10.80
2018-11-29T13:15:22.860Z,10.80
2018-11-29T13:17:51.289Z,10.80
2018-11-29T13:20:19.877Z,10.80
2018-11-29T13:22:48.321Z,10.80
2018-11-29T13:25:19.635Z,10.80
2018-11-29T13:27:48.278Z,10.80
2018-11-29T13:30:20.526Z,10.80
2018-11-29T13:32:50.137Z,10.80
2018-11-29T13:35:20.521Z,10.80
2018-11-29T13:38:09.466Z,10.90
2018-11-29T13:40:38.024Z,10.90
2018-11-29T13:43:06.589Z,10.90
2018-11-29T13:45:35.386Z,10.90
2018-11-29T13:48:04.019Z,11.00
2018-11-29T13:50:32.569Z,11.00
2018-11-29T13:53:01.150Z,11.00
2018-11-29T13:55:29.693Z,11.10
2018-11-29T13:57:58.316Z,11.20
2018-11-29T14:00:26.911Z,11.40
2018-11-29T14:02:59.895Z,11.40
2018-11-29T14:05:28.429Z,11.40
2018-11-29T14:07:57.019Z,11.30
2018-11-29T14:10:26.327Z,11.40
2018-11-29T14:12:55.676Z,11.20
2018-11-29T14:15:25.517Z,11.30
2018-11-29T14:17:54.019Z,11.30
2018-11-29T14:20:22.637Z,11.30
2018-11-29T14:22:51.154Z,11.30
2018-11-29T14:25:19.650Z,11.30
2018-11-29T14:27:51.588Z,11.30
2018-11-29T14:30:23.945Z,11.30
2018-11-29T14:32:53.342Z,11.40
2018-11-29T14:35:21.861Z,11.40
2018-11-29T14:37:50.366Z,11.40
2018-11-29T14:40:20.151Z,11.40
2018-11-29T14:42:48.652Z,11.30
2018-11-29T14:45:19.456Z,11.20
2018-11-29T14:47:48.035Z,11.30
2018-11-29T14:50:18.192Z,11.30
2018-11-29T14:52:46.737Z,11.30
2018-11-29T14:55:15.262Z,11.30
2018-11-29T14:57:43.795Z,11.30
2018-11-29T15:00:13.185Z,11.20
2018-11-29T15:02:42.053Z,11.20
2018-11-29T15:05:15.422Z,11.20
2018-11-29T15:07:43.979Z,11.20
2018-11-29T15:10:12.631Z,11.20
2018-11-29T15:12:41.214Z,11.20
2018-11-29T15:15:11.658Z,11.10
2018-11-29T15:17:41.159Z,11.10
2018-11-29T15:20:17.339Z,11.10
2018-11-29T15:22:45.957Z,11.20
2018-11-29T15:25:14.705Z,11.10
2018-11-29T15:27:43.231Z,11.10
2018-11-29T15:30:14.106Z,11.10
2018-11-29T15:32:42.698Z,11.10
2018-11-29T15:35:11.396Z,11.10
2018-11-29T15:37:40.000Z,11.00
2018-11-29T15:40:11.850Z,11.10
2018-11-29T15:42:40.358Z,11.20
2018-11-29T15:45:11.660Z,11.10
2018-11-29T15:47:40.144Z,11.20
2018-11-29T15:50:11.703Z,11.20
2018-11-29T15:52:40.232Z,11.20
2018-11-29T15:55:12.246Z,11.20
2018-11-29T15:57:40.985Z,11.10
2018-11-29T16:00:14.269Z,11.10
2018-11-29T16:02:43.151Z,11.10
2018-11-29T16:05:11.650Z,11.10
2018-11-29T16:07:40.236Z,11.10
2018-11-29T16:10:12.830Z,11.10
2018-11-29T16:12:41.369Z,11.10
2018-11-29T16:15:12.991Z,11.20
2018-11-29T16:17:41.509Z,11.20
2018-11-29T16:20:13.273Z,11.20
2018-11-29T16:22:41.860Z,11.20
2018-11-29T16:25:11.289Z,11.20
2018-11-29T16:27:39.789Z,11.20
2018-11-29T16:30:17.478Z,11.20
2018-11-29T16:32:45.994Z,11.20
2018-11-29T16:35:14.509Z,11.20
2018-11-29T16:37:43.006Z,11.20
2018-11-29T16:40:11.616Z,11.20
2018-11-29T16:42:40.082Z,11.20
2018-11-29T16:45:10.779Z,11.10
2018-11-29T16:47:39.884Z,11.10
2018-11-29T16:50:13.300Z,11.10
2018-11-29T16:52:41.833Z,11.10
2018-11-29T16:55:11.253Z,11.00
2018-11-29T16:57:42.331Z,10.90
2018-11-29T17:00:18.228Z,10.80
2018-11-29T17:02:46.675Z,10.80
2018-11-29T17:05:15.365Z,10.80
2018-11-29T17:07:43.905Z,10.80
2018-11-29T17:10:13.771Z,10.70
2018-11-29T17:12:44.351Z,10.60
2018-11-29T17:15:15.313Z,10.50
2018-11-29T17:17:43.842Z,10.40
2018-11-29T17:20:14.764Z,10.40
2018-11-29T17:22:43.487Z,10.40
2018-11-29T17:25:13.399Z,10.30
2018-11-29T17:27:41.921Z,10.40
2018-11-29T17:30:13.975Z,10.40
2018-11-29T17:32:42.710Z,10.50
2018-11-29T17:35:11.313Z,10.40
2018-11-29T17:37:39.798Z,10.50
2018-11-29T17:40:13.797Z,10.50
2018-11-29T17:42:42.303Z,10.50
2018-11-29T17:45:12.128Z,10.50
2018-11-29T17:47:41.186Z,10.50
2018-11-29T17:50:19.595Z,10.60
2018-11-29T17:52:48.049Z,10.60
2018-11-29T17:55:16.602Z,10.60
2018-11-29T17:57:45.095Z,10.60
2018-11-29T18:00:16.323Z,10.50
2018-11-29T18:02:44.786Z,10.60
2018-11-29T18:05:13.310Z,10.60
2018-11-29T18:07:41.970Z,10.60
2018-11-29T18:10:42.698Z,10.60
2018-11-29T18:13:14.523Z,10.60
2018-11-29T18:15:43.339Z,10.60
2018-11-29T18:18:12.075Z,10.60
2018-11-29T18:20:40.623Z,10.60
2018-11-29T18:23:10.000Z,10.50
2018-11-29T18:25:38.491Z,10.50
2018-11-29T18:28:07.651Z,10.60
2018-11-29T18:30:36.173Z,10.50
2018-11-29T18:33:04.663Z,10.50
2018-11-29T18:35:33.203Z,10.50
2018-11-29T18:38:01.721Z,10.50
2018-11-29T18:40:30.224Z,10.50
2018-11-29T18:42:59.754Z,10.60
2018-11-29T18:45:28.458Z,10.60
2018-11-29T18:47:57.033Z,10.60
2018-11-29T18:50:26.395Z,10.60
2018-11-29T18:52:54.905Z,10.70
2018-11-29T18:55:24.432Z,10.70
2018-11-29T18:57:53.371Z,10.70
2018-11-29T19:00:24.099Z,10.60
2018-11-29T19:02:56.988Z,10.70
2018-11-29T19:05:21.196Z,10.70
2018-11-29T19:07:49.751Z,10.70
2018-11-29T19:10:18.938Z,10.70
2018-11-29T19:12:56.548Z,10.80
2018-11-29T19:15:25.069Z,10.70
2018-11-29T19:17:54.561Z,10.80
2018-11-29T19:20:23.076Z,10.80
2018-11-29T19:22:51.558Z,10.80
2018-11-29T19:25:20.516Z,10.80
2018-11-29T19:27:49.071Z,10.80
2018-11-29T19:30:19.920Z,10.80
2018-11-29T19:32:51.086Z,10.80
2018-11-29T19:35:19.522Z,10.80
2018-11-29T19:37:48.063Z,10.80
2018-11-29T19:40:17.148Z,10.80
2018-11-29T19:42:45.699Z,10.70
2018-11-29T19:45:15.267Z,10.70
2018-11-29T19:47:43.769Z,10.80
2018-11-29T19:50:17.100Z,10.80
2018-11-29T19:52:47.851Z,10.70
2018-11-29T19:55:22.743Z,10.80
2018-11-29T19:57:51.313Z,10.70
2018-11-29T20:00:20.235Z,10.60
2018-11-29T20:02:49.542Z,10.70
2018-11-29T20:05:17.967Z,10.70
2018-11-29T20:07:46.476Z,10.70
2018-11-29T20:10:16.169Z,10.80
2018-11-29T20:12:45.449Z,10.80
2018-11-29T20:15:16.325Z,10.70
2018-11-29T20:17:44.791Z,10.80
2018-11-29T20:20:13.413Z,10.80
2018-11-29T20:22:42.234Z,10.70
2018-11-29T20:25:14.896Z,10.80
2018-11-29T20:27:43.542Z,10.70
2018-11-29T20:30:14.436Z,10.70
2018-11-29T20:32:42.998Z,10.80
2018-11-29T20:35:12.068Z,10.80
2018-11-29T20:37:40.757Z,10.80
2018-11-29T20:40:17.758Z,10.80
2018-11-29T20:42:47.377Z,10.80
2018-11-29T20:45:23.504Z,10.90
2018-11-29T20:47:52.089Z,10.90
2018-11-29T20:50:21.907Z,10.90
2018-11-29T20:52:51.459Z,10.90
2018-11-29T20:55:28.052Z,10.90
2018-11-29T20:57:56.596Z,10.90
2018-11-29T21:00:25.126Z,10.90
2018-11-29T21:02:53.608Z,10.90
2018-11-29T21:05:23.024Z,10.90
2018-11-29T21:07:52.941Z,10.90
2018-11-29T21:10:24.279Z,10.80
2018-11-29T21:12:52.907Z,10.80
2018-11-29T21:15:21.626Z,10.80
2018-11-29T21:17:50.174Z,10.80
2018-11-29T21:20:19.792Z,10.80
2018-11-29T21:22:49.536Z,10.80
2018-11-29T21:25:19.328Z,10.80
2018-11-29T21:27:47.849Z,10.80
2018-11-29T21:30:16.906Z,10.80
2018-11-29T21:32:45.697Z,10.80
2018-11-29T21:35:15.402Z,10.80
2018-11-29T21:37:44.117Z,10.80
2018-11-29T21:40:17.193Z,10.70
2018-11-29T21:42:45.724Z,10.70
2018-11-29T21:45:14.246Z,10.70
2018-11-29T21:47:42.797Z,10.70
2018-11-29T21:50:11.301Z,10.70
2018-11-29T21:52:41.306Z,10.70
2018-11-29T21:55:09.940Z,10.60
2018-11-29T21:57:38.482Z,10.70
2018-11-29T22:00:09.527Z,10.70
2018-11-29T22:02:41.739Z,10.70
2018-11-29T22:05:06.712Z,10.70
2018-11-29T22:07:35.243Z,10.70
2018-11-29T22:10:03.793Z,10.70
2018-11-29T22:12:32.439Z,10.80
2018-11-29T22:15:00.993Z,10.70
2018-11-29T22:17:29.501Z,10.70
2018-11-29T22:19:58.492Z,10.70
2018-11-29T22:22:28.432Z,10.70
2018-11-29T22:24:55.166Z,10.70
2018-11-29T22:27:23.706Z,10.70
2018-11-29T22:29:52.237Z,10.60
2018-11-29T22:32:20.703Z,10.70
2018-11-29T22:34:49.230Z,10.60
2018-11-29T22:37:17.697Z,10.60
2018-11-29T22:39:46.210Z,10.50
2018-11-29T22:42:14.787Z,10.50
2018-11-29T22:44:43.400Z,10.50
2018-11-29T22:47:11.907Z,10.40
2018-11-29T22:49:40.404Z,10.40
2018-11-29T22:52:08.857Z,10.40
2018-11-29T22:54:37.422Z,10.40
2018-11-29T22:57:06.493Z,10.50
2018-11-29T22:59:34.967Z,10.50
2018-11-29T23:02:03.544Z,10.50
2018-11-29T23:04:32.113Z,10.40
2018-11-29T23:07:00.630Z,10.30
2018-11-29T23:09:29.255Z,10.40
2018-11-29T23:11:57.803Z,10.40
2018-11-29T23:14:26.635Z,10.40
2018-11-29T23:16:55.154Z,10.40
2018-11-29T23:19:23.729Z,10.50
2018-11-29T23:21:52.198Z,10.40
2018-11-29T23:24:20.742Z,10.50
2018-11-29T23:26:49.269Z,10.50
2018-11-29T23:29:17.776Z,10.50
2018-11-29T23:31:46.250Z,10.50
2018-11-29T23:34:14.756Z,10.50
2018-11-29T23:36:43.370Z,10.60
2018-11-29T23:39:11.837Z,10.50
2018-11-29T23:41:40.387Z,10.60
2018-11-29T23:44:08.931Z,10.60
2018-11-29T23:46:37.418Z,10.70
2018-11-29T23:49:06.552Z,10.70
2018-11-29T23:51:35.042Z,10.60
2018-11-29T23:54:03.564Z,10.70
2018-11-29T23:56:32.071Z,10.70
2018-11-29T23:59:04.574Z,10.80
